sensor_id;sensor_type;location;lat;lon;timestamp;pressure;altitude;pressure_sealevel;temperature;humidity
28008;BME280;15333;50.010;20.020;2023-05-22T00:01:08;99054.94;;;9.95;100.00
28008;BME280;15333;50.010;20.020;2023-05-22T00:04:09;99048.19;;;10.02;100.00
28008;BME280;15333;50.010;20.020;2023-05-22T00:07:12;99049.13;;;10.28;100.00
28008;BME280;15333;50.010;20.020;2023-05-22T00:10:13;99040.31;;;10.38;100.00
28008;BME280;15333;50.010;20.020;2023-05-22T00:13:14;99044.16;;;10.47;100.00
28008;BME280;15333;50.010;20.020;2023-05-22T00:16:15;99033.28;;;10.37;100.00
28008;BME280;15333;50.010;20.020;2023-05-22T00:19:16;99038.59;;;10.12;100.00
28008;BME280;15333;50.010;20.020;2023-05-22T00:22:17;99033.00;;;9.90;100.00
28008;BME280;15333;50.010;20.020;2023-05-22T00:25:19;99036.97;;;9.97;100.00
28008;BME280;15333;50.010;20.020;2023-05-22T00:28:20;99030.75;;;10.09;100.00
28008;BME280;15333;50.010;20.020;2023-05-22T00:31:22;99020.22;;;10.20;100.00
28008;BME280;15333;50.010;20.020;2023-05-22T00:34:22;99030.91;;;10.33;100.00
28008;BME280;15333;50.010;20.020;2023-05-22T00:37:23;99032.28;;;10.38;100.00
28008;BME280;15333;50.010;20.020;2023-05-22T00:40:25;99030.47;;;10.39;100.00
28008;BME280;15333;50.010;20.020;2023-05-22T00:43:26;99030.47;;;10.39;100.00
28008;BME280;15333;50.010;20.020;2023-05-22T00:46:31;99032.41;;;10.24;100.00
28008;BME280;15333;50.010;20.020;2023-05-22T00:49:32;99026.59;;;10.05;100.00
28008;BME280;15333;50.010;20.020;2023-05-22T00:52:34;99032.81;;;9.80;100.00
28008;BME280;15333;50.010;20.020;2023-05-22T00:55:37;99032.56;;;9.58;100.00
28008;BME280;15333;50.010;20.020;2023-05-22T00:58:38;99039.22;;;9.38;100.00
28008;BME280;15333;50.010;20.020;2023-05-22T01:01:39;99035.66;;;9.25;100.00
28008;BME280;15333;50.010;20.020;2023-05-22T01:04:46;99032.25;;;9.23;100.00
28008;BME280;15333;50.010;20.020;2023-05-22T01:07:50;99039.81;;;9.16;100.00
28008;BME280;15333;50.010;20.020;2023-05-22T01:10:55;99034.13;;;9.08;100.00
28008;BME280;15333;50.010;20.020;2023-05-22T01:17:36;99030.81;;;8.90;100.00
28008;BME280;15333;50.010;20.020;2023-05-22T01:20:57;99030.75;;;8.78;100.00
28008;BME280;15333;50.010;20.020;2023-05-22T01:27:35;99031.25;;;8.70;100.00
28008;BME280;15333;50.010;20.020;2023-05-22T01:30:56;99019.22;;;8.77;100.00
28008;BME280;15333;50.010;20.020;2023-05-22T01:34:01;99030.84;;;8.76;100.00
28008;BME280;15333;50.010;20.020;2023-05-22T01:37:03;99025.72;;;8.73;100.00
28008;BME280;15333;50.010;20.020;2023-05-22T01:40:07;99030.47;;;8.68;100.00
28008;BME280;15333;50.010;20.020;2023-05-22T01:43:14;99020.03;;;8.65;100.00
28008;BME280;15333;50.010;20.020;2023-05-22T01:46:15;99023.06;;;8.73;100.00
28008;BME280;15333;50.010;20.020;2023-05-22T01:49:16;99018.38;;;8.77;100.00
28008;BME280;15333;50.010;20.020;2023-05-22T01:52:26;99024.16;;;8.83;100.00
28008;BME280;15333;50.010;20.020;2023-05-22T01:55:39;99021.84;;;8.91;100.00
28008;BME280;15333;50.010;20.020;2023-05-22T01:58:49;99026.25;;;8.92;100.00
28008;BME280;15333;50.010;20.020;2023-05-22T02:01:53;99017.78;;;8.86;100.00
28008;BME280;15333;50.010;20.020;2023-05-22T02:04:58;99016.00;;;8.72;100.00
28008;BME280;15333;50.010;20.020;2023-05-22T02:07:59;99018.31;;;8.64;100.00
28008;BME280;15333;50.010;20.020;2023-05-22T02:11:02;99020.59;;;8.56;100.00
28008;BME280;15333;50.010;20.020;2023-05-22T02:14:03;99028.22;;;8.48;100.00
28008;BME280;15333;50.010;20.020;2023-05-22T02:17:04;99026.72;;;8.44;100.00
28008;BME280;15333;50.010;20.020;2023-05-22T02:20:13;99028.44;;;8.45;100.00
28008;BME280;15333;50.010;20.020;2023-05-22T02:23:17;99033.94;;;8.56;100.00
28008;BME280;15333;50.010;20.020;2023-05-22T02:26:18;99034.09;;;8.67;100.00
28008;BME280;15333;50.010;20.020;2023-05-22T02:29:19;99023.44;;;8.67;100.00
28008;BME280;15333;50.010;20.020;2023-05-22T02:32:20;99026.22;;;8.66;100.00
28008;BME280;15333;50.010;20.020;2023-05-22T02:35:22;99023.81;;;8.61;100.00
28008;BME280;15333;50.010;20.020;2023-05-22T02:38:23;99019.28;;;8.49;100.00
28008;BME280;15333;50.010;20.020;2023-05-22T02:41:24;99025.00;;;8.43;100.00
28008;BME280;15333;50.010;20.020;2023-05-22T02:44:25;99023.97;;;8.45;100.00
28008;BME280;15333;50.010;20.020;2023-05-22T02:47:26;99016.03;;;8.58;100.00
28008;BME280;15333;50.010;20.020;2023-05-22T02:50:27;99021.75;;;8.52;100.00
28008;BME280;15333;50.010;20.020;2023-05-22T02:53:28;99016.00;;;8.72;100.00
28008;BME280;15333;50.010;20.020;2023-05-22T02:56:29;99013.09;;;8.89;100.00
28008;BME280;15333;50.010;20.020;2023-05-22T02:59:30;99008.47;;;9.06;100.00
28008;BME280;15333;50.010;20.020;2023-05-22T03:02:31;99006.69;;;9.19;100.00
28008;BME280;15333;50.010;20.020;2023-05-22T03:05:32;99003.00;;;9.34;100.00
28008;BME280;15333;50.010;20.020;2023-05-22T03:08:33;99000.44;;;9.45;100.00
28008;BME280;15333;50.010;20.020;2023-05-22T03:11:34;98995.47;;;9.66;100.00
28008;BME280;15333;50.010;20.020;2023-05-22T03:14:35;98998.16;;;9.78;100.00
28008;BME280;15333;50.010;20.020;2023-05-22T03:17:36;98987.03;;;9.85;100.00
28008;BME280;15333;50.010;20.020;2023-05-22T03:20:37;98982.53;;;10.10;100.00
28008;BME280;15333;50.010;20.020;2023-05-22T03:23:38;98984.69;;;10.43;100.00
28008;BME280;15333;50.010;20.020;2023-05-22T03:26:39;98986.50;;;10.79;100.00
28008;BME280;15333;50.010;20.020;2023-05-22T03:29:44;98989.75;;;11.19;100.00
28008;BME280;15333;50.010;20.020;2023-05-22T03:32:45;98985.63;;;11.61;100.00
28008;BME280;15333;50.010;20.020;2023-05-22T03:35:46;98980.75;;;12.01;100.00
28008;BME280;15333;50.010;20.020;2023-05-22T03:38:47;98980.28;;;12.41;96.46
28008;BME280;15333;50.010;20.020;2023-05-22T03:41:48;98983.06;;;12.62;89.08
28008;BME280;15333;50.010;20.020;2023-05-22T03:44:49;98986.34;;;12.76;86.96
28008;BME280;15333;50.010;20.020;2023-05-22T03:47:51;98993.53;;;13.41;82.95
28008;BME280;15333;50.010;20.020;2023-05-22T03:50:52;98981.94;;;13.82;80.18
28008;BME280;15333;50.010;20.020;2023-05-22T03:53:53;98983.19;;;14.29;78.01
28008;BME280;15333;50.010;20.020;2023-05-22T03:56:54;98979.66;;;14.08;77.71
28008;BME280;15333;50.010;20.020;2023-05-22T03:59:55;98977.81;;;13.99;77.24
28008;BME280;15333;50.010;20.020;2023-05-22T04:02:56;98988.13;;;14.24;74.27
28008;BME280;15333;50.010;20.020;2023-05-22T04:05:58;98991.28;;;14.60;74.91
28008;BME280;15333;50.010;20.020;2023-05-22T04:09:00;98998.88;;;14.24;76.72
28008;BME280;15333;50.010;20.020;2023-05-22T04:12:02;98991.28;;;15.09;71.96
28008;BME280;15333;50.010;20.020;2023-05-22T04:15:03;98994.25;;;14.57;72.43
28008;BME280;15333;50.010;20.020;2023-05-22T04:18:04;98998.59;;;14.88;72.62
28008;BME280;15333;50.010;20.020;2023-05-22T04:21:05;98986.03;;;16.04;68.43
28008;BME280;15333;50.010;20.020;2023-05-22T04:24:09;98989.06;;;16.38;66.60
28008;BME280;15333;50.010;20.020;2023-05-22T04:27:10;98997.13;;;17.12;62.04
28008;BME280;15333;50.010;20.020;2023-05-22T04:30:15;98992.84;;;17.54;59.64
28008;BME280;15333;50.010;20.020;2023-05-22T04:33:16;98990.03;;;16.83;61.12
28008;BME280;15333;50.010;20.020;2023-05-22T04:36:17;98992.19;;;17.25;60.09
28008;BME280;15333;50.010;20.020;2023-05-22T04:39:24;98985.50;;;18.08;58.04
28008;BME280;15333;50.010;20.020;2023-05-22T04:42:25;98981.78;;;18.09;58.09
28008;BME280;15333;50.010;20.020;2023-05-22T04:45:27;98979.63;;;18.38;54.88
28008;BME280;15333;50.010;20.020;2023-05-22T04:48:32;98990.00;;;17.11;60.81
28008;BME280;15333;50.010;20.020;2023-05-22T04:51:33;98982.59;;;18.87;53.77
28008;BME280;15333;50.010;20.020;2023-05-22T04:54:34;98989.41;;;18.99;53.06
28008;BME280;15333;50.010;20.020;2023-05-22T04:57:35;98989.38;;;18.91;53.03
28008;BME280;15333;50.010;20.020;2023-05-22T05:00:37;98984.53;;;18.69;52.72
28008;BME280;15333;50.010;20.020;2023-05-22T05:03:38;98988.81;;;19.30;51.07
28008;BME280;15333;50.010;20.020;2023-05-22T05:06:39;98987.28;;;18.77;52.49
28008;BME280;15333;50.010;20.020;2023-05-22T05:09:40;98991.69;;;18.18;54.46
28008;BME280;15333;50.010;20.020;2023-05-22T05:12:41;98982.31;;;17.87;55.42
28008;BME280;15333;50.010;20.020;2023-05-22T05:15:42;98984.38;;;18.45;53.65
28008;BME280;15333;50.010;20.020;2023-05-22T05:18:43;98986.97;;;18.80;52.55
28008;BME280;15333;50.010;20.020;2023-05-22T05:21:45;98983.91;;;19.25;51.53
28008;BME280;15333;50.010;20.020;2023-05-22T05:24:46;98985.84;;;19.57;51.34
28008;BME280;15333;50.010;20.020;2023-05-22T05:27:47;98983.31;;;19.72;51.20
28008;BME280;15333;50.010;20.020;2023-05-22T05:30:50;98984.50;;;19.53;52.31
28008;BME280;15333;50.010;20.020;2023-05-22T05:34:03;98980.41;;;19.89;49.75
28008;BME280;15333;50.010;20.020;2023-05-22T05:37:11;98978.56;;;19.66;50.82
28008;BME280;15333;50.010;20.020;2023-05-22T05:40:12;98980.41;;;20.06;50.60
28008;BME280;15333;50.010;20.020;2023-05-22T05:43:18;98986.19;;;19.70;50.53
28008;BME280;15333;50.010;20.020;2023-05-22T05:46:19;98977.00;;;20.12;50.29
28008;BME280;15333;50.010;20.020;2023-05-22T05:49:21;98980.94;;;20.09;49.72
28008;BME280;15333;50.010;20.020;2023-05-22T05:52:22;98982.78;;;20.09;50.08
28008;BME280;15333;50.010;20.020;2023-05-22T05:55:26;98977.72;;;19.73;50.82
28008;BME280;15333;50.010;20.020;2023-05-22T05:58:33;98975.44;;;17.39;57.74
28008;BME280;15333;50.010;20.020;2023-05-22T06:01:54;98972.44;;;15.48;65.26
28008;BME280;15333;50.010;20.020;2023-05-22T06:05:00;98971.66;;;14.88;68.29
28008;BME280;15333;50.010;20.020;2023-05-22T06:08:03;98979.56;;;14.80;69.53
28008;BME280;15333;50.010;20.020;2023-05-22T06:11:05;98975.19;;;14.79;69.35
28008;BME280;15333;50.010;20.020;2023-05-22T06:14:11;98964.47;;;14.98;70.15
28008;BME280;15333;50.010;20.020;2023-05-22T06:17:12;98974.84;;;15.32;68.88
28008;BME280;15333;50.010;20.020;2023-05-22T06:20:15;98970.84;;;15.16;69.26
28008;BME280;15333;50.010;20.020;2023-05-22T06:23:16;98966.75;;;15.32;69.89
28008;BME280;15333;50.010;20.020;2023-05-22T06:26:18;98964.63;;;15.25;69.50
28008;BME280;15333;50.010;20.020;2023-05-22T06:29:20;98963.75;;;15.35;68.71
28008;BME280;15333;50.010;20.020;2023-05-22T06:32:22;98964.78;;;15.72;69.23
28008;BME280;15333;50.010;20.020;2023-05-22T06:35:25;98961.47;;;15.97;66.53
28008;BME280;15333;50.010;20.020;2023-05-22T06:38:26;98965.94;;;16.26;65.17
28008;BME280;15333;50.010;20.020;2023-05-22T06:41:28;98963.72;;;16.12;65.22
28008;BME280;15333;50.010;20.020;2023-05-22T06:44:29;98968.84;;;15.95;66.64
28008;BME280;15333;50.010;20.020;2023-05-22T06:47:30;98967.72;;;15.98;66.76
28008;BME280;15333;50.010;20.020;2023-05-22T06:50:31;98959.72;;;16.16;67.86
28008;BME280;15333;50.010;20.020;2023-05-22T06:53:32;98965.56;;;16.48;66.64
28008;BME280;15333;50.010;20.020;2023-05-22T06:56:34;98965.25;;;16.51;66.36
28008;BME280;15333;50.010;20.020;2023-05-22T06:59:42;98963.34;;;16.34;65.37
28008;BME280;15333;50.010;20.020;2023-05-22T07:03:00;98966.97;;;16.52;65.65
28008;BME280;15333;50.010;20.020;2023-05-22T07:06:07;98972.84;;;16.38;65.86
28008;BME280;15333;50.010;20.020;2023-05-22T07:09:08;98966.69;;;16.55;65.55
28008;BME280;15333;50.010;20.020;2023-05-22T07:12:11;98963.25;;;16.53;64.62
28008;BME280;15333;50.010;20.020;2023-05-22T07:15:13;98964.91;;;16.73;65.03
28008;BME280;15333;50.010;20.020;2023-05-22T07:18:20;98969.44;;;16.73;65.51
28008;BME280;15333;50.010;20.020;2023-05-22T07:21:21;98957.78;;;16.72;64.78
28008;BME280;15333;50.010;20.020;2023-05-22T07:24:26;98950.88;;;16.88;65.70
28008;BME280;15333;50.010;20.020;2023-05-22T07:27:27;98949.66;;;17.00;64.58
28008;BME280;15333;50.010;20.020;2023-05-22T07:30:28;98953.34;;;16.99;63.63
28008;BME280;15333;50.010;20.020;2023-05-22T07:33:30;98954.75;;;17.03;63.97
28008;BME280;15333;50.010;20.020;2023-05-22T07:36:31;98956.47;;;17.04;63.92
28008;BME280;15333;50.010;20.020;2023-05-22T07:39:32;98950.28;;;17.29;63.72
28008;BME280;15333;50.010;20.020;2023-05-22T07:42:33;98949.38;;;17.38;63.48
28008;BME280;15333;50.010;20.020;2023-05-22T07:45:36;98949.31;;;17.66;62.15
28008;BME280;15333;50.010;20.020;2023-05-22T07:48:41;98939.28;;;17.84;61.20
28008;BME280;15333;50.010;20.020;2023-05-22T07:51:44;98945.78;;;18.17;59.08
28008;BME280;15333;50.010;20.020;2023-05-22T07:54:45;98946.28;;;18.20;58.99
28008;BME280;15333;50.010;20.020;2023-05-22T07:57:47;98961.69;;;18.20;58.50
28008;BME280;15333;50.010;20.020;2023-05-22T08:00:56;98956.50;;;18.26;58.67
28008;BME280;15333;50.010;20.020;2023-05-22T08:03:58;98955.00;;;18.58;58.11
28008;BME280;15333;50.010;20.020;2023-05-22T08:06:58;98962.44;;;18.56;57.23
28008;BME280;15333;50.010;20.020;2023-05-22T08:10:03;98951.50;;;18.39;57.29
28008;BME280;15333;50.010;20.020;2023-05-22T08:13:04;98944.50;;;18.29;57.27
28008;BME280;15333;50.010;20.020;2023-05-22T08:16:06;98941.56;;;18.22;57.29
28008;BME280;15333;50.010;20.020;2023-05-22T08:19:07;98943.34;;;18.31;57.25
28008;BME280;15333;50.010;20.020;2023-05-22T08:22:08;98946.09;;;18.39;56.68
28008;BME280;15333;50.010;20.020;2023-05-22T08:25:09;98945.88;;;18.59;54.72
28008;BME280;15333;50.010;20.020;2023-05-22T08:28:10;98946.88;;;18.58;53.84
28008;BME280;15333;50.010;20.020;2023-05-22T08:31:11;98939.50;;;18.84;52.94
28008;BME280;15333;50.010;20.020;2023-05-22T08:34:12;98944.59;;;18.79;53.00
28008;BME280;15333;50.010;20.020;2023-05-22T08:37:13;98948.81;;;18.73;51.11
28008;BME280;15333;50.010;20.020;2023-05-22T08:40:15;98953.06;;;18.84;51.04
28008;BME280;15333;50.010;20.020;2023-05-22T08:43:19;98948.41;;;19.02;52.66
28008;BME280;15333;50.010;20.020;2023-05-22T08:46:22;98944.00;;;19.26;51.19
28008;BME280;15333;50.010;20.020;2023-05-22T08:49:25;98947.69;;;19.00;49.94
28008;BME280;15333;50.010;20.020;2023-05-22T08:52:34;98944.31;;;19.06;49.91
28008;BME280;15333;50.010;20.020;2023-05-22T08:55:36;98932.13;;;19.18;51.95
28008;BME280;15333;50.010;20.020;2023-05-22T08:58:38;98943.69;;;19.21;49.10
28008;BME280;15333;50.010;20.020;2023-05-22T09:01:39;98936.16;;;18.98;50.49
28008;BME280;15333;50.010;20.020;2023-05-22T09:04:40;98953.19;;;19.16;50.81
28008;BME280;15333;50.010;20.020;2023-05-22T09:07:41;98938.22;;;19.12;49.63
28008;BME280;15333;50.010;20.020;2023-05-22T09:10:43;98932.66;;;19.22;51.06
28008;BME280;15333;50.010;20.020;2023-05-22T09:13:43;98931.50;;;19.25;49.21
28008;BME280;15333;50.010;20.020;2023-05-22T09:16:50;98930.47;;;19.17;48.82
28008;BME280;15333;50.010;20.020;2023-05-22T09:19:52;98921.47;;;19.41;49.96
28008;BME280;15333;50.010;20.020;2023-05-22T09:22:53;98926.09;;;19.65;48.37
28008;BME280;15333;50.010;20.020;2023-05-22T09:25:55;98924.41;;;19.56;47.28
28008;BME280;15333;50.010;20.020;2023-05-22T09:28:58;98917.56;;;19.36;49.06
28008;BME280;15333;50.010;20.020;2023-05-22T09:31:59;98915.56;;;19.38;49.16
28008;BME280;15333;50.010;20.020;2023-05-22T09:35:03;98906.03;;;19.26;49.32
28008;BME280;15333;50.010;20.020;2023-05-22T09:38:05;98903.31;;;19.17;50.32
28008;BME280;15333;50.010;20.020;2023-05-22T09:41:06;98893.47;;;19.33;50.23
28008;BME280;15333;50.010;20.020;2023-05-22T09:44:13;98907.41;;;19.46;49.70
28008;BME280;15333;50.010;20.020;2023-05-22T09:47:15;98905.41;;;19.48;50.17
28008;BME280;15333;50.010;20.020;2023-05-22T09:50:16;98910.84;;;19.72;48.17
28008;BME280;15333;50.010;20.020;2023-05-22T09:53:17;98898.94;;;19.73;49.04
28008;BME280;15333;50.010;20.020;2023-05-22T09:56:20;98902.31;;;19.83;48.59
28008;BME280;15333;50.010;20.020;2023-05-22T09:59:26;98918.44;;;19.69;49.14
28008;BME280;15333;50.010;20.020;2023-05-22T10:02:30;98898.28;;;19.63;48.71
28008;BME280;15333;50.010;20.020;2023-05-22T10:05:33;98893.16;;;19.68;49.32
28008;BME280;15333;50.010;20.020;2023-05-22T10:08:39;98889.91;;;19.97;49.69
28008;BME280;15333;50.010;20.020;2023-05-22T10:11:42;98898.88;;;20.14;47.84
28008;BME280;15333;50.010;20.020;2023-05-22T10:14:43;98893.59;;;20.12;47.08
28008;BME280;15333;50.010;20.020;2023-05-22T10:17:44;98885.97;;;20.08;44.96
28008;BME280;15333;50.010;20.020;2023-05-22T10:20:46;98896.16;;;20.14;44.80
28008;BME280;15333;50.010;20.020;2023-05-22T10:23:49;98896.88;;;19.83;43.63
28008;BME280;15333;50.010;20.020;2023-05-22T10:26:52;98890.41;;;20.01;43.76
28008;BME280;15333;50.010;20.020;2023-05-22T10:29:59;98878.81;;;20.23;44.57
28008;BME280;15333;50.010;20.020;2023-05-22T10:33:08;98886.28;;;20.13;43.74
28008;BME280;15333;50.010;20.020;2023-05-22T10:36:36;98885.38;;;19.65;43.86
28008;BME280;15333;50.010;20.020;2023-05-22T10:42:47;98874.13;;;19.84;43.04
28008;BME280;15333;50.010;20.020;2023-05-22T10:45:48;98878.22;;;19.88;41.72
28008;BME280;15333;50.010;20.020;2023-05-22T10:48:51;98873.59;;;19.97;42.30
28008;BME280;15333;50.010;20.020;2023-05-22T10:51:55;98874.84;;;19.78;41.07
28008;BME280;15333;50.010;20.020;2023-05-22T10:54:58;98873.28;;;19.84;41.73
28008;BME280;15333;50.010;20.020;2023-05-22T10:58:11;98866.31;;;19.89;41.67
28008;BME280;15333;50.010;20.020;2023-05-22T11:01:17;98856.69;;;20.26;42.23
28008;BME280;15333;50.010;20.020;2023-05-22T11:04:23;98852.22;;;20.49;41.69
28008;BME280;15333;50.010;20.020;2023-05-22T11:07:38;98853.91;;;20.50;40.37
28008;BME280;15333;50.010;20.020;2023-05-22T11:10:55;98859.94;;;20.38;41.58
28008;BME280;15333;50.010;20.020;2023-05-22T11:14:02;98851.88;;;20.52;41.14
28008;BME280;15333;50.010;20.020;2023-05-22T11:17:07;98845.59;;;20.52;41.15
28008;BME280;15333;50.010;20.020;2023-05-22T11:20:17;98841.53;;;20.40;40.22
28008;BME280;15333;50.010;20.020;2023-05-22T11:23:20;98831.78;;;20.53;39.87
28008;BME280;15333;50.010;20.020;2023-05-22T11:26:23;98841.34;;;20.49;40.04
28008;BME280;15333;50.010;20.020;2023-05-22T11:29:25;98834.75;;;20.44;38.37
28008;BME280;15333;50.010;20.020;2023-05-22T11:32:26;98838.97;;;20.46;39.24
28008;BME280;15333;50.010;20.020;2023-05-22T11:35:27;98826.47;;;20.37;38.80
28008;BME280;15333;50.010;20.020;2023-05-22T11:38:29;98830.81;;;20.46;38.15
28008;BME280;15333;50.010;20.020;2023-05-22T11:41:33;98831.00;;;20.76;38.98
28008;BME280;15333;50.010;20.020;2023-05-22T11:44:34;98830.03;;;20.91;38.69
28008;BME280;15333;50.010;20.020;2023-05-22T11:47:35;98836.09;;;20.79;38.15
28008;BME280;15333;50.010;20.020;2023-05-22T11:50:37;98830.16;;;20.98;39.35
28008;BME280;15333;50.010;20.020;2023-05-22T11:53:37;98830.78;;;21.08;39.03
28008;BME280;15333;50.010;20.020;2023-05-22T11:56:38;98830.34;;;20.96;38.69
28008;BME280;15333;50.010;20.020;2023-05-22T11:59:48;98820.63;;;21.02;38.77
28008;BME280;15333;50.010;20.020;2023-05-22T12:02:49;98824.84;;;20.82;38.93
28008;BME280;15333;50.010;20.020;2023-05-22T12:05:50;98828.47;;;20.97;38.59
28008;BME280;15333;50.010;20.020;2023-05-22T12:08:52;98818.47;;;21.20;39.37
28008;BME280;15333;50.010;20.020;2023-05-22T12:11:56;98830.41;;;21.11;39.43
28008;BME280;15333;50.010;20.020;2023-05-22T12:14:57;98826.19;;;20.86;39.32
28008;BME280;15333;50.010;20.020;2023-05-22T12:17:58;98822.66;;;21.00;40.15
28008;BME280;15333;50.010;20.020;2023-05-22T12:20:59;98822.06;;;21.13;39.70
28008;BME280;15333;50.010;20.020;2023-05-22T12:24:04;98823.13;;;21.03;39.56
28008;BME280;15333;50.010;20.020;2023-05-22T12:27:09;98815.06;;;21.18;39.61
28008;BME280;15333;50.010;20.020;2023-05-22T12:30:12;98815.75;;;21.12;39.97
28008;BME280;15333;50.010;20.020;2023-05-22T12:33:13;98811.53;;;21.32;40.90
28008;BME280;15333;50.010;20.020;2023-05-22T12:36:14;98804.59;;;21.30;39.64
28008;BME280;15333;50.010;20.020;2023-05-22T12:39:16;98798.03;;;21.24;40.29
28008;BME280;15333;50.010;20.020;2023-05-22T12:42:17;98805.38;;;20.93;39.90
28008;BME280;15333;50.010;20.020;2023-05-22T12:45:18;98796.44;;;21.07;40.32
28008;BME280;15333;50.010;20.020;2023-05-22T12:48:19;98793.97;;;21.20;40.20
28008;BME280;15333;50.010;20.020;2023-05-22T12:51:20;98791.84;;;21.30;40.17
28008;BME280;15333;50.010;20.020;2023-05-22T12:54:21;98784.00;;;21.04;40.23
28008;BME280;15333;50.010;20.020;2023-05-22T12:57:22;98782.03;;;21.21;40.90
28008;BME280;15333;50.010;20.020;2023-05-22T13:00:22;98794.13;;;21.19;40.43
28008;BME280;15333;50.010;20.020;2023-05-22T13:03:24;98790.56;;;21.18;40.49
28008;BME280;15333;50.010;20.020;2023-05-22T13:06:24;98782.03;;;21.21;40.75
28008;BME280;15333;50.010;20.020;2023-05-22T13:09:26;98787.34;;;21.37;41.28
28008;BME280;15333;50.010;20.020;2023-05-22T13:12:28;98780.78;;;21.46;41.23
28008;BME280;15333;50.010;20.020;2023-05-22T13:15:30;98786.00;;;21.33;40.54
28008;BME280;15333;50.010;20.020;2023-05-22T13:18:32;98780.66;;;21.40;40.79
28008;BME280;15333;50.010;20.020;2023-05-22T13:21:33;98776.75;;;21.42;41.05
28008;BME280;15333;50.010;20.020;2023-05-22T13:24:33;98762.31;;;21.57;41.47
28008;BME280;15333;50.010;20.020;2023-05-22T13:27:35;98770.13;;;21.60;40.84
28008;BME280;15333;50.010;20.020;2023-05-22T13:30:36;98769.06;;;21.61;40.78
28008;BME280;15333;50.010;20.020;2023-05-22T13:33:37;98764.16;;;21.41;40.67
28008;BME280;15333;50.010;20.020;2023-05-22T13:36:37;98762.78;;;21.45;40.93
28008;BME280;15333;50.010;20.020;2023-05-22T13:39:38;98765.22;;;21.70;40.95
28008;BME280;15333;50.010;20.020;2023-05-22T13:42:39;98754.50;;;21.54;40.28
28008;BME280;15333;50.010;20.020;2023-05-22T13:45:40;98759.94;;;21.54;40.22
28008;BME280;15333;50.010;20.020;2023-05-22T13:48:41;98753.09;;;21.72;40.96
28008;BME280;15333;50.010;20.020;2023-05-22T13:51:42;98748.69;;;21.57;41.08
28008;BME280;15333;50.010;20.020;2023-05-22T13:54:43;98751.31;;;21.65;41.06
28008;BME280;15333;50.010;20.020;2023-05-22T13:57:44;98731.41;;;22.08;39.90
28008;BME280;15333;50.010;20.020;2023-05-22T14:00:45;98747.75;;;21.94;40.30
28008;BME280;15333;50.010;20.020;2023-05-22T14:03:46;98741.53;;;21.85;40.04
28008;BME280;15333;50.010;20.020;2023-05-22T14:06:47;98747.34;;;21.82;39.86
28008;BME280;15333;50.010;20.020;2023-05-22T14:09:48;98734.97;;;21.94;39.69
28008;BME280;15333;50.010;20.020;2023-05-22T14:12:49;98740.41;;;21.94;39.95
28008;BME280;15333;50.010;20.020;2023-05-22T14:15:50;98735.06;;;21.86;39.74
28008;BME280;15333;50.010;20.020;2023-05-22T14:18:51;98730.28;;;21.88;38.91
28008;BME280;15333;50.010;20.020;2023-05-22T14:21:52;98736.78;;;22.02;39.81
28008;BME280;15333;50.010;20.020;2023-05-22T14:24:53;98739.09;;;21.90;39.65
28008;BME280;15333;50.010;20.020;2023-05-22T14:27:54;98728.19;;;21.90;40.12
28008;BME280;15333;50.010;20.020;2023-05-22T14:30:55;98725.22;;;22.00;40.04
28008;BME280;15333;50.010;20.020;2023-05-22T14:33:56;98724.63;;;22.04;39.68
28008;BME280;15333;50.010;20.020;2023-05-22T14:36:57;98718.81;;;21.78;40.38
28008;BME280;15333;50.010;20.020;2023-05-22T14:39:58;98718.06;;;21.84;40.87
28008;BME280;15333;50.010;20.020;2023-05-22T14:42:59;98713.53;;;21.91;41.25
28008;BME280;15333;50.010;20.020;2023-05-22T14:46:00;98717.41;;;21.97;40.00
28008;BME280;15333;50.010;20.020;2023-05-22T14:49:01;98712.69;;;21.91;40.69
28008;BME280;15333;50.010;20.020;2023-05-22T14:52:02;98722.13;;;21.73;40.68
28008;BME280;15333;50.010;20.020;2023-05-22T14:55:03;98716.56;;;21.67;41.20
28008;BME280;15333;50.010;20.020;2023-05-22T14:58:04;98713.47;;;21.55;39.75
28008;BME280;15333;50.010;20.020;2023-05-22T15:01:05;98710.63;;;21.63;40.17
28008;BME280;15333;50.010;20.020;2023-05-22T15:04:06;98716.66;;;21.59;40.12
28008;BME280;15333;50.010;20.020;2023-05-22T15:07:08;98713.38;;;21.78;39.81
28008;BME280;15333;50.010;20.020;2023-05-22T15:10:09;98713.00;;;21.81;40.43
28008;BME280;15333;50.010;20.020;2023-05-22T15:13:10;98712.06;;;21.74;40.05
28008;BME280;15333;50.010;20.020;2023-05-22T15:16:11;98711.66;;;21.77;40.07
28008;BME280;15333;50.010;20.020;2023-05-22T15:19:12;98701.03;;;21.67;40.17
28008;BME280;15333;50.010;20.020;2023-05-22T15:22:13;98706.38;;;21.90;40.63
28008;BME280;15333;50.010;20.020;2023-05-22T15:25:14;98704.44;;;21.84;40.61
28008;BME280;15333;50.010;20.020;2023-05-22T15:28:15;98693.25;;;22.08;40.81
28008;BME280;15333;50.010;20.020;2023-05-22T15:31:16;98691.72;;;22.42;40.33
28008;BME280;15333;50.010;20.020;2023-05-22T15:34:17;98681.47;;;22.44;40.19
28008;BME280;15333;50.010;20.020;2023-05-22T15:37:18;98688.50;;;22.74;39.75
28008;BME280;15333;50.010;20.020;2023-05-22T15:40:19;98686.16;;;22.50;39.18
28008;BME280;15333;50.010;20.020;2023-05-22T15:43:21;98690.78;;;22.13;40.54
28008;BME280;15333;50.010;20.020;2023-05-22T15:46:22;98699.63;;;22.15;40.52
28008;BME280;15333;50.010;20.020;2023-05-22T15:49:23;98692.84;;;22.47;41.16
28008;BME280;15333;50.010;20.020;2023-05-22T15:52:24;98699.72;;;22.43;39.49
28008;BME280;15333;50.010;20.020;2023-05-22T15:55:25;98683.38;;;22.07;40.87
28008;BME280;15333;50.010;20.020;2023-05-22T15:58:26;98687.03;;;22.14;40.46
28008;BME280;15333;50.010;20.020;2023-05-22T16:01:30;98690.03;;;21.90;40.73
28008;BME280;15333;50.010;20.020;2023-05-22T16:04:31;98691.38;;;21.94;41.43